sensor_id;sensor_type;location;lat;lon;timestamp;temperature;humidity
43227;DHT22;28839;52.404;9.808;2022-08-19T00:05:29;19.60;99.90
43227;DHT22;28839;52.404;9.808;2022-08-19T00:12:25;19.60;99.90
43227;DHT22;28839;52.404;9.808;2022-08-19T00:19:20;19.70;99.90
43227;DHT22;28839;52.404;9.808;2022-08-19T00:26:14;19.60;99.90
43227;DHT22;28839;52.404;9.808;2022-08-19T00:33:09;19.60;99.90
43227;DHT22;28839;52.404;9.808;2022-08-19T00:40:05;19.40;99.90
43227;DHT22;28839;52.404;9.808;2022-08-19T00:46:59;19.30;99.90
43227;DHT22;28839;52.404;9.808;2022-08-19T00:53:55;19.20;99.90
43227;DHT22;28839;52.404;9.808;2022-08-19T01:00:50;19.10;99.90
43227;DHT22;28839;52.404;9.808;2022-08-19T01:07:44;19.00;99.90
43227;DHT22;28839;52.404;9.808;2022-08-19T01:14:40;18.90;99.90
43227;DHT22;28839;52.404;9.808;2022-08-19T01:21:37;18.80;99.90
43227;DHT22;28839;52.404;9.808;2022-08-19T01:28:36;18.80;99.90
43227;DHT22;28839;52.404;9.808;2022-08-19T01:35:31;18.70;99.90
43227;DHT22;28839;52.404;9.808;2022-08-19T01:42:25;18.60;99.90
43227;DHT22;28839;52.404;9.808;2022-08-19T01:49:22;18.60;99.90
43227;DHT22;28839;52.404;9.808;2022-08-19T01:56:17;18.70;99.90
43227;DHT22;28839;52.404;9.808;2022-08-19T02:03:12;18.60;99.90
43227;DHT22;28839;52.404;9.808;2022-08-19T02:10:13;18.50;99.90
43227;DHT22;28839;52.404;9.808;2022-08-19T02:17:08;18.60;99.90
43227;DHT22;28839;52.404;9.808;2022-08-19T02:24:02;18.50;99.90
43227;DHT22;28839;52.404;9.808;2022-08-19T02:30:58;18.50;99.90
43227;DHT22;28839;52.404;9.808;2022-08-19T02:37:53;18.40;99.90
43227;DHT22;28839;52.404;9.808;2022-08-19T02:45:05;18.40;99.90
43227;DHT22;28839;52.404;9.808;2022-08-19T02:52:02;18.40;99.90
43227;DHT22;28839;52.404;9.808;2022-08-19T02:58:57;18.40;99.90
43227;DHT22;28839;52.404;9.808;2022-08-19T03:05:51;18.30;99.90
43227;DHT22;28839;52.404;9.808;2022-08-19T03:12:46;18.20;99.90
43227;DHT22;28839;52.404;9.808;2022-08-19T03:19:40;18.20;99.90
43227;DHT22;28839;52.404;9.808;2022-08-19T03:26:38;18.30;99.90
43227;DHT22;28839;52.404;9.808;2022-08-19T03:33:34;18.30;99.90
43227;DHT22;28839;52.404;9.808;2022-08-19T03:40:28;18.30;99.90
43227;DHT22;28839;52.404;9.808;2022-08-19T03:47:23;18.20;99.90
43227;DHT22;28839;52.404;9.808;2022-08-19T03:54:21;18.30;99.90
43227;DHT22;28839;52.404;9.808;2022-08-19T04:01:18;18.10;99.90
43227;DHT22;28839;52.404;9.808;2022-08-19T04:08:13;18.10;99.90
43227;DHT22;28839;52.404;9.808;2022-08-19T04:15:14;18.00;99.90
43227;DHT22;28839;52.404;9.808;2022-08-19T04:22:10;18.00;99.90
43227;DHT22;28839;52.404;9.808;2022-08-19T04:29:07;18.00;99.90
43227;DHT22;28839;52.404;9.808;2022-08-19T04:36:03;18.00;99.90
43227;DHT22;28839;52.404;9.808;2022-08-19T04:42:56;17.90;99.90
43227;DHT22;28839;52.404;9.808;2022-08-19T04:49:51;17.80;99.90
43227;DHT22;28839;52.404;9.808;2022-08-19T04:56:46;17.80;99.90
43227;DHT22;28839;52.404;9.808;2022-08-19T05:03:42;17.80;99.90
43227;DHT22;28839;52.404;9.808;2022-08-19T05:10:36;17.80;99.90
43227;DHT22;28839;52.404;9.808;2022-08-19T05:17:31;17.80;99.90
43227;DHT22;28839;52.404;9.808;2022-08-19T05:24:29;17.90;99.90
43227;DHT22;28839;52.404;9.808;2022-08-19T05:31:26;17.90;99.90
43227;DHT22;28839;52.404;9.808;2022-08-19T05:38:21;18.00;99.90
43227;DHT22;28839;52.404;9.808;2022-08-19T05:45:15;18.00;99.90
43227;DHT22;28839;52.404;9.808;2022-08-19T05:52:13;17.90;99.90
43227;DHT22;28839;52.404;9.808;2022-08-19T05:59:10;18.10;99.90
43227;DHT22;28839;52.404;9.808;2022-08-19T06:06:08;18.20;99.90
43227;DHT22;28839;52.404;9.808;2022-08-19T06:13:03;18.30;99.90
43227;DHT22;28839;52.404;9.808;2022-08-19T06:19:59;18.20;99.90
43227;DHT22;28839;52.404;9.808;2022-08-19T06:26:55;18.20;99.90
43227;DHT22;28839;52.404;9.808;2022-08-19T06:33:49;18.10;99.90
43227;DHT22;28839;52.404;9.808;2022-08-19T06:40:44;18.10;99.90
43227;DHT22;28839;52.404;9.808;2022-08-19T06:47:38;18.30;99.90
43227;DHT22;28839;52.404;9.808;2022-08-19T06:54:32;18.30;99.90
43227;DHT22;28839;52.404;9.808;2022-08-19T07:01:27;18.30;99.90
43227;DHT22;28839;52.404;9.808;2022-08-19T07:08:21;18.30;99.90
43227;DHT22;28839;52.404;9.808;2022-08-19T07:15:19;18.40;99.90
43227;DHT22;28839;52.404;9.808;2022-08-19T07:22:14;18.50;99.90
43227;DHT22;28839;52.404;9.808;2022-08-19T07:29:09;18.80;99.90
43227;DHT22;28839;52.404;9.808;2022-08-19T07:36:04;19.00;99.90
43227;DHT22;28839;52.404;9.808;2022-08-19T07:42:59;19.10;99.90
43227;DHT22;28839;52.404;9.808;2022-08-19T07:49:53;19.10;99.90
43227;DHT22;28839;52.404;9.808;2022-08-19T07:56:47;19.10;99.90
43227;DHT22;28839;52.404;9.808;2022-08-19T08:03:44;19.50;99.90
43227;DHT22;28839;52.404;9.808;2022-08-19T08:10:55;19.50;99.90
43227;DHT22;28839;52.404;9.808;2022-08-19T08:17:49;19.80;99.90
43227;DHT22;28839;52.404;9.808;2022-08-19T08:24:44;19.70;99.90
43227;DHT22;28839;52.404;9.808;2022-08-19T08:31:40;19.70;99.90
43227;DHT22;28839;52.404;9.808;2022-08-19T08:38:36;20.10;99.90
43227;DHT22;28839;52.404;9.808;2022-08-19T08:45:38;20.40;99.90
43227;DHT22;28839;52.404;9.808;2022-08-19T08:52:37;20.90;99.90
43227;DHT22;28839;52.404;9.808;2022-08-19T08:59:37;21.70;99.90
43227;DHT22;28839;52.404;9.808;2022-08-19T09:06:51;21.80;99.90
43227;DHT22;28839;52.404;9.808;2022-08-19T09:13:57;22.30;99.90
43227;DHT22;28839;52.404;9.808;2022-08-19T09:20:55;22.00;99.90
43227;DHT22;28839;52.404;9.808;2022-08-19T09:27:51;22.00;99.90
43227;DHT22;28839;52.404;9.808;2022-08-19T09:34:47;21.90;99.90
43227;DHT22;28839;52.404;9.808;2022-08-19T09:41:41;21.70;99.90
43227;DHT22;28839;52.404;9.808;2022-08-19T09:48:36;22.00;99.90
43227;DHT22;28839;52.404;9.808;2022-08-19T09:55:29;22.30;99.90
43227;DHT22;28839;52.404;9.808;2022-08-19T10:02:23;23.10;99.90
43227;DHT22;28839;52.404;9.808;2022-08-19T10:09:18;23.30;99.90
43227;DHT22;28839;52.404;9.808;2022-08-19T10:16:14;23.50;99.90
43227;DHT22;28839;52.404;9.808;2022-08-19T10:23:08;23.80;99.90
43227;DHT22;28839;52.404;9.808;2022-08-19T10:30:04;23.40;99.90
43227;DHT22;28839;52.404;9.808;2022-08-19T10:36:59;23.60;99.90
43227;DHT22;28839;52.404;9.808;2022-08-19T10:43:55;23.50;99.90
43227;DHT22;28839;52.404;9.808;2022-08-19T10:50:51;23.50;99.90
43227;DHT22;28839;52.404;9.808;2022-08-19T10:58:03;23.40;99.90
43227;DHT22;28839;52.404;9.808;2022-08-19T11:04:57;23.50;99.90
43227;DHT22;28839;52.404;9.808;2022-08-19T11:11:53;23.40;99.90
43227;DHT22;28839;52.404;9.808;2022-08-19T11:18:51;23.40;99.90
43227;DHT22;28839;52.404;9.808;2022-08-19T11:25:50;23.80;99.90
43227;DHT22;28839;52.404;9.808;2022-08-19T11:32:47;23.90;99.90
43227;DHT22;28839;52.404;9.808;2022-08-19T11:39:40;24.10;99.90
43227;DHT22;28839;52.404;9.808;2022-08-19T11:46:35;24.40;99.90
43227;DHT22;28839;52.404;9.808;2022-08-19T11:53:31;24.40;99.90
43227;DHT22;28839;52.404;9.808;2022-08-19T12:00:25;24.50;99.90
43227;DHT22;28839;52.404;9.808;2022-08-19T12:07:19;24.40;99.90
43227;DHT22;28839;52.404;9.808;2022-08-19T12:14:14;24.50;99.90
43227;DHT22;28839;52.404;9.808;2022-08-19T12:21:09;25.00;99.90
43227;DHT22;28839;52.404;9.808;2022-08-19T12:28:04;25.00;99.90
43227;DHT22;28839;52.404;9.808;2022-08-19T12:34:59;25.00;99.90
43227;DHT22;28839;52.404;9.808;2022-08-19T12:41:54;25.10;99.90
43227;DHT22;28839;52.404;9.808;2022-08-19T12:48:47;25.30;99.90
43227;DHT22;28839;52.404;9.808;2022-08-19T12:55:43;25.10;99.90
43227;DHT22;28839;52.404;9.808;2022-08-19T13:02:37;25.00;99.90
43227;DHT22;28839;52.404;9.808;2022-08-19T13:09:31;25.20;99.90
43227;DHT22;28839;52.404;9.808;2022-08-19T13:16:27;25.60;99.90
43227;DHT22;28839;52.404;9.808;2022-08-19T13:23:21;25.60;99.90
43227;DHT22;28839;52.404;9.808;2022-08-19T13:30:15;25.60;99.90
43227;DHT22;28839;52.404;9.808;2022-08-19T13:37:28;25.40;99.90
43227;DHT22;28839;52.404;9.808;2022-08-19T13:44:34;25.50;99.90
43227;DHT22;28839;52.404;9.808;2022-08-19T13:51:28;25.60;99.90
43227;DHT22;28839;52.404;9.808;2022-08-19T13:58:23;25.70;99.90
43227;DHT22;28839;52.404;9.808;2022-08-19T14:05:18;25.70;99.90
43227;DHT22;28839;52.404;9.808;2022-08-19T14:12:12;25.80;99.90
43227;DHT22;28839;52.404;9.808;2022-08-19T14:19:07;26.10;99.90
43227;DHT22;28839;52.404;9.808;2022-08-19T14:26:06;26.10;99.90
43227;DHT22;28839;52.404;9.808;2022-08-19T14:33:02;26.20;99.90
43227;DHT22;28839;52.404;9.808;2022-08-19T14:39:58;26.30;99.90
43227;DHT22;28839;52.404;9.808;2022-08-19T14:46:52;26.20;99.90
43227;DHT22;28839;52.404;9.808;2022-08-19T14:53:46;26.20;99.90
43227;DHT22;28839;52.404;9.808;2022-08-19T15:00:42;26.20;99.90
43227;DHT22;28839;52.404;9.808;2022-08-19T15:07:36;26.30;99.90
43227;DHT22;28839;52.404;9.808;2022-08-19T15:14:31;26.30;99.90
43227;DHT22;28839;52.404;9.808;2022-08-19T15:21:29;26.40;99.90
43227;DHT22;28839;52.404;9.808;2022-08-19T15:28:24;26.50;99.90
43227;DHT22;28839;52.404;9.808;2022-08-19T15:35:19;26.90;99.90
43227;DHT22;28839;52.404;9.808;2022-08-19T15:42:14;27.00;99.90
43227;DHT22;28839;52.404;9.808;2022-08-19T15:49:09;26.60;99.90
43227;DHT22;28839;52.404;9.808;2022-08-19T15:56:04;26.70;99.90
43227;DHT22;28839;52.404;9.808;2022-08-19T16:02:59;26.60;99.90
43227;DHT22;28839;52.404;9.808;2022-08-19T16:10:10;26.60;99.90
43227;DHT22;28839;52.404;9.808;2022-08-19T16:17:05;26.40;99.90
43227;DHT22;28839;52.404;9.808;2022-08-19T16:24:05;26.50;99.90
43227;DHT22;28839;52.404;9.808;2022-08-19T16:30:59;26.30;99.90
43227;DHT22;28839;52.404;9.808;2022-08-19T16:37:53;26.30;99.90
43227;DHT22;28839;52.404;9.808;2022-08-19T16:44:48;26.30;99.90
43227;DHT22;28839;52.404;9.808;2022-08-19T16:51:43;26.30;99.90
43227;DHT22;28839;52.404;9.808;2022-08-19T16:58:37;26.20;99.90
43227;DHT22;28839;52.404;9.808;2022-08-19T17:05:32;26.30;99.90
43227;DHT22;28839;52.404;9.808;2022-08-19T17:12:27;26.20;99.90
43227;DHT22;28839;52.404;9.808;2022-08-19T17:19:20;26.10;99.90
43227;DHT22;28839;52.404;9.808;2022-08-19T17:26:17;26.00;99.90
43227;DHT22;28839;52.404;9.808;2022-08-19T17:33:11;25.70;99.90
43227;DHT22;28839;52.404;9.808;2022-08-19T17:40:06;25.50;99.90
43227;DHT22;28839;52.404;9.808;2022-08-19T17:47:02;25.30;99.90
43227;DHT22;28839;52.404;9.808;2022-08-19T17:53:56;25.10;99.90
43227;DHT22;28839;52.404;9.808;2022-08-19T18:00:50;24.90;99.90
43227;DHT22;28839;52.404;9.808;2022-08-19T18:07:49;24.80;99.90
43227;DHT22;28839;52.404;9.808;2022-08-19T18:14:43;24.70;99.90
43227;DHT22;28839;52.404;9.808;2022-08-19T18:21:38;24.40;99.90
43227;DHT22;28839;52.404;9.808;2022-08-19T18:28:33;24.10;99.90
43227;DHT22;28839;52.404;9.808;2022-08-19T18:35:29;23.90;99.90
43227;DHT22;28839;52.404;9.808;2022-08-19T18:42:24;23.60;99.90
43227;DHT22;28839;52.404;9.808;2022-08-19T18:49:37;23.30;99.90
43227;DHT22;28839;52.404;9.808;2022-08-19T18:56:31;23.00;99.90
43227;DHT22;28839;52.404;9.808;2022-08-19T19:03:26;22.90;99.90
43227;DHT22;28839;52.404;9.808;2022-08-19T19:10:21;22.90;99.90
43227;DHT22;28839;52.404;9.808;2022-08-19T19:17:15;22.70;99.90
43227;DHT22;28839;52.404;9.808;2022-08-19T19:24:09;22.40;99.90
43227;DHT22;28839;52.404;9.808;2022-08-19T19:31:06;22.30;99.90
43227;DHT22;28839;52.404;9.808;2022-08-19T19:38:04;22.10;99.90
43227;DHT22;28839;52.404;9.808;2022-08-19T19:44:57;21.90;99.90
43227;DHT22;28839;52.404;9.808;2022-08-19T19:51:54;21.70;99.90
43227;DHT22;28839;52.404;9.808;2022-08-19T19:58:49;21.70;99.90
43227;DHT22;28839;52.404;9.808;2022-08-19T20:05:44;21.70;99.90
43227;DHT22;28839;52.404;9.808;2022-08-19T20:12:40;21.60;99.90
43227;DHT22;28839;52.404;9.808;2022-08-19T20:19:33;21.40;99.90
43227;DHT22;28839;52.404;9.808;2022-08-19T20:26:28;21.40;99.90
43227;DHT22;28839;52.404;9.808;2022-08-19T20:33:24;21.30;99.90
43227;DHT22;28839;52.404;9.808;2022-08-19T20:40:18;21.10;99.90
43227;DHT22;28839;52.404;9.808;2022-08-19T20:47:13;21.10;99.90
43227;DHT22;28839;52.404;9.808;2022-08-19T20:54:08;20.90;99.90
43227;DHT22;28839;52.404;9.808;2022-08-19T21:01:04;20.70;99.90
43227;DHT22;28839;52.404;9.808;2022-08-19T21:07:58;20.60;99.90
43227;DHT22;28839;52.404;9.808;2022-08-19T21:14:53;20.50;99.90
43227;DHT22;28839;52.404;9.808;2022-08-19T21:21:47;20.40;99.90
43227;DHT22;28839;52.404;9.808;2022-08-19T21:28:41;20.30;99.90
43227;DHT22;28839;52.404;9.808;2022-08-19T21:35:37;20.20;99.90
43227;DHT22;28839;52.404;9.808;2022-08-19T21:42:31;20.20;99.90
43227;DHT22;28839;52.404;9.808;2022-08-19T21:49:24;20.10;99.90
43227;DHT22;28839;52.404;9.808;2022-08-19T21:56:20;20.10;99.90
43227;DHT22;28839;52.404;9.808;2022-08-19T22:03:16;19.90;99.90
43227;DHT22;28839;52.404;9.808;2022-08-19T22:10:10;19.90;99.90
43227;DHT22;28839;52.404;9.808;2022-08-19T22:17:06;19.80;99.90
43227;DHT22;28839;52.404;9.808;2022-08-19T22:24:00;19.80;99.90
43227;DHT22;28839;52.404;9.808;2022-08-19T22:30:54;19.70;99.90
43227;DHT22;28839;52.404;9.808;2022-08-19T22:37:50;19.60;99.90
43227;DHT22;28839;52.404;9.808;2022-08-19T22:44:44;19.60;99.90
43227;DHT22;28839;52.404;9.808;2022-08-19T22:51:38;19.50;99.90
43227;DHT22;28839;52.404;9.808;2022-08-19T22:58:50;19.50;99.90
43227;DHT22;28839;52.404;9.808;2022-08-19T23:05:44;19.50;99.90
43227;DHT22;28839;52.404;9.808;2022-08-19T23:12:41;19.40;99.90
43227;DHT22;28839;52.404;9.808;2022-08-19T23:19:37;19.40;99.90
43227;DHT22;28839;52.404;9.808;2022-08-19T23:26:31;19.30;99.90
43227;DHT22;28839;52.404;9.808;2022-08-19T23:33:28;19.20;99.90
43227;DHT22;28839;52.404;9.808;2022-08-19T23:40:23;19.10;99.90
43227;DHT22;28839;52.404;9.808;2022-08-19T23:47:17;19.10;99.90
43227;DHT22;28839;52.404;9.808;2022-08-19T23:54:13;19.10;99.90
